Time;durP1;ratioP1;P1;durP2;ratioP2;P2;SDS_P1;SDS_P2;PMS_P1;PMS_P2;Temp;Humidity;BMP_temperature;BMP_pressure;BME280_temperature;BME280_humidity;BME280_pressure;Samples;Min_cycle;Max_cycle;Signal;HPM_P1;HPM_P2
2024/01/31 00:04:36;;;;;;;6.35;0.93;;;5.50;99.90;;;;;;20642427;28;20414;-39
2024/01/31 00:14:37;;;;;;;7.95;0.88;;;5.60;99.90;;;;;;20657781;28;20045;-39
2024/01/31 00:24:37;;;;;;;3.38;0.70;;;5.80;99.90;;;;;;20665990;28;20081;-39
2024/01/31 00:34:38;;;;;;;2.93;0.63;;;5.80;99.90;;;;;;20669091;28;21120;-39
2024/01/31 00:44:38;;;;;;;7.15;0.90;;;6.00;99.90;;;;;;20667912;28;20484;-39
2024/01/31 00:54:39;;;;;;;6.32;0.88;;;6.10;99.90;;;;;;20672833;28;20058;-39
2024/01/31 01:04:40;;;;;;;9.43;0.85;;;6.20;99.90;;;;;;20671337;28;22969;-39
2024/01/31 01:14:41;;;;;;;4.95;1.20;;;6.20;99.90;;;;;;20670359;28;20034;-39
2024/01/31 01:24:41;;;;;;;9.10;1.13;;;6.20;99.90;;;;;;20680537;28;20042;-39
2024/01/31 01:34:42;;;;;;;2.78;0.85;;;6.10;99.90;;;;;;20676401;28;20070;-40
2024/01/31 01:44:47;;;;;;;6.03;1.27;;;6.10;99.90;;;;;;20673125;28;20046;-39
2024/01/31 01:54:47;;;;;;;6.60;1.13;;;6.20;99.90;;;;;;20663046;28;20065;-39
2024/01/31 02:04:49;;;;;;;2.78;1.02;;;6.20;99.90;;;;;;20664509;28;20038;-39
2024/01/31 02:14:52;;;;;;;4.82;0.95;;;6.20;99.90;;;;;;20662186;28;20093;-39
2024/01/31 02:24:52;;;;;;;5.18;1.23;;;6.10;99.90;;;;;;20659334;28;20133;-39
2024/01/31 02:34:53;;;;;;;5.18;1.25;;;6.20;99.90;;;;;;20659759;28;20032;-39
2024/01/31 02:44:53;;;;;;;3.05;1.00;;;6.20;99.90;;;;;;20655693;28;20053;-39
2024/01/31 02:54:54;;;;;;;5.45;1.10;;;6.20;99.90;;;;;;20656166;28;20045;-39
2024/01/31 03:04:55;;;;;;;11.13;1.55;;;6.20;99.90;;;;;;20655326;28;20060;-39
2024/01/31 03:14:56;;;;;;;6.25;1.50;;;6.20;99.90;;;;;;20654334;28;20516;-39
2024/01/31 03:24:56;;;;;;;3.95;1.55;;;6.20;99.90;;;;;;20654182;28;20049;-39
2024/01/31 03:34:57;;;;;;;7.55;1.77;;;6.20;99.90;;;;;;20653992;28;20076;-39
2024/01/31 03:44:58;;;;;;;5.05;1.67;;;6.30;99.90;;;;;;20649908;28;20050;-39
2024/01/31 03:54:59;;;;;;;6.82;2.30;;;6.40;99.90;;;;;;20657512;28;20113;-39
2024/01/31 04:05:01;;;;;;;8.68;2.67;;;6.40;99.90;;;;;;20668003;28;21664;-39
2024/01/31 04:15:01;;;;;;;6.63;2.42;;;6.40;99.90;;;;;;20670140;28;20150;-39
2024/01/31 04:25:02;;;;;;;6.55;2.10;;;6.30;99.90;;;;;;20671056;28;20046;-39
2024/01/31 04:35:03;;;;;;;6.85;2.50;;;6.30;99.90;;;;;;20667339;28;20034;-39
2024/01/31 04:45:06;;;;;;;5.85;2.55;;;6.20;99.90;;;;;;20666588;28;20066;-39
2024/01/31 04:55:07;;;;;;;8.90;2.50;;;6.30;99.90;;;;;;20667685;28;20508;-39
2024/01/31 05:05:08;;;;;;;5.80;2.63;;;6.30;99.90;;;;;;20674860;28;20413;-39
2024/01/31 05:15:09;;;;;;;5.63;2.60;;;6.30;99.90;;;;;;20686913;28;20046;-39
2024/01/31 05:25:09;;;;;;;5.82;3.00;;;6.40;95.90;;;;;;20682417;28;20053;-38
2024/01/31 05:35:10;;;;;;;5.68;2.10;;;6.30;74.00;;;;;;20677729;28;20257;-39
2024/01/31 05:45:10;;;;;;;5.68;2.78;;;6.30;61.70;;;;;;20672888;28;20506;-39
2024/01/31 05:55:15;;;;;;;4.82;3.05;;;6.30;58.50;;;;;;20676701;28;20038;-38
2024/01/31 06:05:15;;;;;;;7.00;3.70;;;6.40;29.40;;;;;;20673415;28;20485;-38
2024/01/31 06:15:16;;;;;;;8.03;4.83;;;6.50;21.90;;;;;;20678547;28;20513;-38
2024/01/31 06:25:18;;;;;;;11.77;6.20;;;6.50;16.90;;;;;;20674504;28;20050;-39
2024/01/31 06:35:18;;;;;;;12.05;7.20;;;6.50;19.80;;;;;;20672676;28;20188;-39
2024/01/31 06:45:19;;;;;;;13.07;7.95;;;6.50;22.00;;;;;;20664492;28;20052;-38
2024/01/31 06:55:20;;;;;;;13.55;8.43;;;6.60;27.40;;;;;;20655273;28;20038;-39
2024/01/31 07:05:20;;;;;;;17.75;9.70;;;6.50;42.50;;;;;;20652529;28;20102;-39
2024/01/31 07:15:21;;;;;;;16.83;9.93;;;6.50;57.90;;;;;;20665820;28;20034;-38
2024/01/31 07:25:22;;;;;;;15.32;10.05;;;6.50;57.60;;;;;;20671447;28;20034;-39
2024/01/31 07:35:24;;;;;;;13.43;9.25;;;6.50;56.40;;;;;;20680716;28;20038;-38
2024/01/31 07:45:27;;;;;;;12.40;7.93;;;6.70;36.10;;;;;;20685101;28;20461;-38
2024/01/31 07:55:27;;;;;;;11.57;6.80;;;6.60;28.70;;;;;;20686961;28;20037;-39
2024/01/31 08:05:28;;;;;;;8.65;5.93;;;6.70;15.30;;;;;;20681751;28;20096;-39
2024/01/31 08:15:31;;;;;;;11.13;6.07;;;6.60;15.30;;;;;;20687322;28;20513;-38
2024/01/31 08:25:31;;;;;;;8.32;4.85;;;6.80;9.40;;;;;;20683160;28;20125;-38
2024/01/31 08:35:32;;;;;;;9.43;5.60;;;6.90;3.90;;;;;;20682273;28;20038;-39
2024/01/31 08:45:33;;;;;;;8.60;5.40;;;6.80;8.00;;;;;;20677661;28;20453;-38
2024/01/31 08:55:33;;;;;;;9.70;5.00;;;6.90;7.10;;;;;;20681990;28;20057;-39
2024/01/31 09:05:34;;;;;;;8.00;4.67;;;6.90;2.30;;;;;;20677833;28;20046;-39
2024/01/31 09:15:34;;;;;;;6.97;4.50;;;7.00;1.00;;;;;;20673845;28;20449;-38
2024/01/31 09:25:35;;;;;;;8.55;4.82;;;7.00;1.00;;;;;;20679950;28;20464;-39
2024/01/31 09:35:36;;;;;;;6.10;4.03;;;7.10;1.00;;;;;;20677960;28;20615;-39
2024/01/31 09:45:38;;;;;;;8.68;5.20;;;7.20;1.00;;;;;;20677953;28;20046;-39
2024/01/31 09:55:40;;;;;;;10.65;6.05;;;7.30;1.00;;;;;;20676228;28;20430;-39
2024/01/31 10:05:41;;;;;;;12.43;7.70;;;7.20;1.00;;;;;;20674736;28;20038;-40
2024/01/31 10:15:43;;;;;;;13.85;7.70;;;7.40;1.00;;;;;;20676127;28;20045;-39
2024/01/31 10:25:43;;;;;;;12.30;6.85;;;7.40;4.60;;;;;;20675987;28;20041;-39
2024/01/31 10:35:45;;;;;;;18.00;8.05;;;7.30;7.20;;;;;;20672274;28;20058;-40
2024/01/31 10:45:47;;;;;;;18.35;8.60;;;7.40;17.10;;;;;;20672503;28;20054;-38
2024/01/31 10:55:48;;;;;;;18.83;8.38;;;7.50;22.10;;;;;;20668742;28;20104;-39
2024/01/31 11:05:53;;;;;;;15.80;8.60;;;7.60;25.10;;;;;;20673472;28;20047;-40
2024/01/31 11:15:54;;;;;;;19.33;9.35;;;7.60;23.20;;;;;;20670008;28;20412;-39
2024/01/31 11:25:54;;;;;;;22.60;10.57;;;7.70;27.90;;;;;;20671462;28;20472;-40
2024/01/31 11:35:55;;;;;;;23.53;11.23;;;7.70;30.70;;;;;;20669488;28;20116;-39
2024/01/31 11:45:56;;;;;;;24.93;12.87;;;7.70;26.30;;;;;;20669667;28;21078;-40
2024/01/31 11:55:57;;;;;;;26.00;13.50;;;7.90;16.30;;;;;;20671164;28;20471;-39
2024/01/31 12:05:58;;;;;;;22.90;12.38;;;7.90;10.40;;;;;;20669184;28;20552;-39
2024/01/31 12:15:59;;;;;;;25.48;13.40;;;8.00;5.30;;;;;;20672019;28;20037;-40
2024/01/31 12:26:00;;;;;;;16.05;9.18;;;8.00;7.60;;;;;;20686457;28;20042;-39
2024/01/31 12:36:01;;;;;;;13.47;8.27;;;8.00;1.00;;;;;;20693977;28;20041;-39
2024/01/31 12:46:02;;;;;;;15.88;9.10;;;8.00;1.00;;;;;;20686827;28;20453;-39
2024/01/31 12:56:03;;;;;;;15.65;9.38;;;8.00;1.00;;;;;;20683195;28;20026;-40
2024/01/31 13:06:04;;;;;;;11.20;7.40;;;8.00;1.00;;;;;;20683619;28;20096;-38
2024/01/31 13:16:06;;;;;;;12.15;6.65;;;8.90;1.00;;;;;;20677895;28;20093;-38
2024/01/31 13:26:07;;;;;;;10.52;6.30;;;8.70;1.00;;;;;;20678956;28;20060;-41
2024/01/31 13:36:08;;;;;;;9.53;4.73;;;8.50;1.00;;;;;;20675558;28;20417;-39
2024/01/31 13:46:08;;;;;;;8.75;4.25;;;8.40;1.00;;;;;;20682380;28;20054;-38
2024/01/31 13:56:09;;;;;;;10.07;4.50;;;8.40;1.00;;;;;;20682465;28;20475;-39
2024/01/31 14:06:10;;;;;;;9.70;4.30;;;8.40;1.00;;;;;;20670770;28;20050;-40
2024/01/31 14:16:14;;;;;;;8.93;4.40;;;8.40;1.00;;;;;;20670114;28;20466;-40
2024/01/31 14:26:18;;;;;;;8.35;4.60;;;8.40;1.00;;;;;;20671310;28;20057;-39
2024/01/31 14:36:18;;;;;;;6.93;4.75;;;8.40;1.00;;;;;;20675604;28;20514;-39
2024/01/31 14:46:19;;;;;;;7.78;4.10;;;8.40;1.00;;;;;;20669942;28;20053;-38
2024/01/31 14:56:20;;;;;;;10.75;5.20;;;8.40;1.00;;;;;;20670125;28;20038;-39
2024/01/31 15:06:20;;;;;;;9.15;4.82;;;8.40;1.00;;;;;;20678960;28;20049;-39
2024/01/31 15:16:21;;;;;;;12.68;4.70;;;8.40;1.00;;;;;;20677227;28;20066;-39
2024/01/31 15:26:22;;;;;;;12.33;4.77;;;8.30;1.00;;;;;;20673224;28;20137;-39
2024/01/31 15:36:23;;;;;;;6.07;3.83;;;8.20;1.00;;;;;;20673532;28;20038;-39
2024/01/31 15:46:25;;;;;;;8.77;3.95;;;8.20;1.00;;;;;;20666912;28;20049;-39
2024/01/31 15:56:26;;;;;;;13.57;4.45;;;8.20;1.00;;;;;;20680765;28;20524;-39
2024/01/31 16:06:27;;;;;;;8.67;3.77;;;8.10;1.00;;;;;;20687363;28;20444;-39
2024/01/31 16:16:27;;;;;;;12.52;4.78;;;8.10;1.00;;;;;;20691533;28;20535;-39
2024/01/31 16:26:28;;;;;;;5.97;3.33;;;8.10;1.00;;;;;;20688393;28;20030;-40
2024/01/31 16:36:29;;;;;;;7.33;3.10;;;8.20;1.00;;;;;;20676748;28;20563;-39
2024/01/31 16:46:29;;;;;;;11.40;3.83;;;8.10;1.00;;;;;;20684177;28;20416;-39
2024/01/31 16:56:30;;;;;;;10.73;4.32;;;8.10;1.00;;;;;;20686488;28;20522;-39
2024/01/31 17:06:30;;;;;;;11.85;5.28;;;8.00;1.00;;;;;;20689722;28;20041;-39
2024/01/31 17:16:31;;;;;;;6.03;4.22;;;8.00;1.00;;;;;;20676098;28;20413;-38
2024/01/31 17:26:32;;;;;;;9.70;4.85;;;8.00;1.00;;;;;;20692489;28;20056;-39
2024/01/31 17:36:32;;;;;;;7.30;4.63;;;7.90;1.00;;;;;;20672959;28;20042;-39
2024/01/31 17:46:33;;;;;;;9.23;4.93;;;7.90;1.00;;;;;;20656987;28;20453;-39
2024/01/31 17:56:33;;;;;;;10.15;5.80;;;7.90;1.00;;;;;;20666823;28;20820;-39
2024/01/31 18:06:34;;;;;;;10.38;4.65;;;7.90;1.00;;;;;;20666866;28;20046;-39
2024/01/31 18:16:35;;;;;;;10.25;4.18;;;7.80;1.00;;;;;;20662903;28;20447;-39
2024/01/31 18:26:36;;;;;;;8.05;3.97;;;7.80;1.00;;;;;;20673248;28;20192;-39
2024/01/31 18:36:36;;;;;;;17.77;4.65;;;7.80;1.00;;;;;;20673161;28;20057;-39
2024/01/31 18:46:38;;;;;;;9.30;3.33;;;7.90;1.00;;;;;;20668720;28;20049;-39
2024/01/31 18:56:40;;;;;;;8.55;3.05;;;7.80;1.00;;;;;;20677336;28;20472;-39
2024/01/31 19:06:41;;;;;;;8.38;3.13;;;7.90;1.00;;;;;;20664509;28;20103;-40
2024/01/31 19:16:42;;;;;;;11.35;2.78;;;7.80;1.00;;;;;;20676463;28;20034;-39
2024/01/31 19:26:42;;;;;;;7.80;2.15;;;7.90;1.00;;;;;;20649427;28;20120;-39
2024/01/31 19:36:43;;;;;;;7.78;2.22;;;7.80;1.00;;;;;;20693547;28;20034;-39
2024/01/31 19:46:54;;;;;;;6.63;2.33;;;7.80;1.00;;;;;;20686275;28;20136;-39
2024/01/31 19:56:55;;;;;;;9.02;3.22;;;7.80;1.00;;;;;;20690407;28;20469;-38
2024/01/31 20:06:56;;;;;;;14.05;4.45;;;7.80;1.00;;;;;;20678977;28;20125;-39
2024/01/31 20:16:56;;;;;;;7.53;2.90;;;7.70;1.00;;;;;;20678435;28;20072;-39
2024/01/31 20:26:57;;;;;;;9.05;3.13;;;7.70;1.00;;;;;;20682463;28;20092;-39
2024/01/31 20:36:58;;;;;;;10.82;2.75;;;7.80;1.00;;;;;;20677560;28;20038;-39
2024/01/31 20:46:59;;;;;;;10.05;3.00;;;7.80;1.00;;;;;;20679286;28;20046;-38
2024/01/31 20:56:59;;;;;;;11.75;3.15;;;7.80;1.00;;;;;;20676026;28;20046;-39
2024/01/31 21:07:00;;;;;;;10.80;3.22;;;7.60;1.00;;;;;;20681001;28;20049;-39
2024/01/31 21:17:01;;;;;;;14.03;3.10;;;7.70;1.00;;;;;;20672454;28;20046;-39
2024/01/31 21:27:01;;;;;;;11.38;3.25;;;7.90;1.00;;;;;;20666620;28;20072;-39
2024/01/31 21:37:02;;;;;;;13.27;4.40;;;7.90;1.00;;;;;;20667823;28;20142;-39
2024/01/31 21:47:03;;;;;;;15.43;4.18;;;8.00;1.00;;;;;;20665629;28;20079;-39
2024/01/31 21:57:06;;;;;;;14.18;4.57;;;8.00;1.00;;;;;;20666811;28;20141;-39
2024/01/31 22:07:19;;;;;;;11.95;4.80;;;8.10;1.00;;;;;;20658620;28;20188;-39
2024/01/31 22:17:19;;;;;;;13.48;4.75;;;8.20;1.00;;;;;;20665243;28;20092;-39
2024/01/31 22:27:20;;;;;;;13.43;5.18;;;8.30;1.00;;;;;;20666145;28;20041;-38
2024/01/31 22:37:20;;;;;;;10.70;5.20;;;8.30;1.00;;;;;;20659499;28;20034;-38
2024/01/31 22:47:23;;;;;;;17.80;6.07;;;8.10;28.20;;;;;;20659994;28;20057;-39
2024/01/31 22:57:24;;;;;;;14.33;5.70;;;7.90;79.90;;;;;;20662018;28;20034;-39
2024/01/31 23:07:24;;;;;;;17.10;7.23;;;7.80;99.90;;;;;;20666379;28;20449;-39
2024/01/31 23:17:25;;;;;;;19.38;7.50;;;7.80;99.90;;;;;;20668547;28;20457;-39
2024/01/31 23:27:25;;;;;;;15.35;8.25;;;7.90;99.90;;;;;;20661316;28;20676;-38
2024/01/31 23:37:26;;;;;;;15.05;8.43;;;7.90;99.90;;;;;;20674509;28;20078;-39
2024/01/31 23:47:26;;;;;;;22.42;9.38;;;8.20;99.90;;;;;;20673559;28;20046;-40
2024/01/31 23:57:27;;;;;;;18.73;7.60;;;8.40;99.90;;;;;;20670636;28;20129;-40
